Kezdőlap
METAR-TAF:

METAR-TAF

Repülőterek :

Decorah Municipal Airport

Decorah, Iowa, Amerikai Egyesült Államok

földrajzi szélesség: 43-17N, földrajzi hosszúság: 091-44W, magasság: 353 m

Jelenlegi meteorológiai megfigyelések

A jelentés 21 perccel ezelõtt készült, 21:55 UTC
Különbözõ irányokból fújó szél 6 kt széllökések: 18 kt
Hőmérséklet 14°C
Páratartalom 82%
Légköri nyomás 1010 hPa
Látótávolság: 14.5 km
Kevés felhő 2600 lábon
Szórványos felhőzet 3400 lábon
Szakadozott felhőzet 5000 lábon

METAR: KDEH 272155Z AUTO VRB06G18KT 9SM FEW026 SCT034 BKN050 14/11 A2982 RMK AO2

Idő: 17:16 (22:16 UTC)


TAF: hiányzik

Meteorológiai megfigyelések és előrejelzések több, mint 4000 repülőtéren (METAR és TAF jelentéseket).

A térképen piros és sárga pontok jelzik az elérhető meteorológiai állomásokat.

Mozgassa az egeret a pont fölött, hogy megjelenjen az állomás neve.

Azután kattintson az időjárási megfigyelések és előrejelzések megtekintéséhez.

A térkép megváltoztatása: kattintson a fekete keresztel jelölt zöld gombra ráközelítéshez, a vonallal jelölt zöld gombra távolításhoz, vagy a zöld nyilakra a szomszédos térképek eléréséhez.


METAR-TAF: